Sid Moller — WDF9421 — position and weather

sailwx.info

Track history (hours):
 
Tides and Currents Weather Stations Pressure Air Temp Water Temp Dewpoint Dewpoint Depression Visibility Wind Speed Wind Dir Waves Ship Positions

Sid Moller

Owner: Genesis Marine, LLC, Houston, TX. More information available from US FCC via Universal Licensing System and Coast Guard Vessel Documentation Center.

Last reported at 2015-Apr-18 14:32 UTC. Time now 2015-Apr-18 15:15 UTC.
Position N 29°46' W 095°07'.

MMSI: 367504980.

Date/timePositionNaut miles runAvg speedWind from/ knotsBaromVisibWave heightAir tempDewpointWater temp
2015-Apr-18 14:32N 29°46' W 095°07'0 0.0
2015-Apr-18 13:34N 29°46' W 095°07'0 0.0
2015-Apr-18 12:32N 29°46' W 095°07'0 0.0
2015-Apr-18 11:34N 29°46' W 095°07'0 0.0
2015-Apr-18 10:33N 29°46' W 095°07'0 0.0
2015-Apr-18 09:33N 29°46' W 095°07'0 0.0
2015-Apr-18 08:33N 29°46' W 095°07'0 0.0
2015-Apr-18 07:32N 29°46' W 095°07'0 0.0
2015-Apr-18 06:33N 29°46' W 095°07'0 0.0
2015-Apr-18 05:27N 29°46' W 095°07'0 0.0
2015-Apr-18 04:27N 29°46' W 095°07'0 0.0
2015-Apr-18 03:32N 29°46' W 095°07'0 0.0
2015-Apr-18 02:33N 29°46' W 095°07'0 0.0
2015-Apr-18 01:13N 29°46' W 095°07'0 0.0
2015-Apr-18 00:31N 29°46' W 095°07'0 0.1
2015-Apr-17 23:33N 29°46' W 095°07'0 0.0
2015-Apr-17 22:34N 29°46' W 095°07'0 0.0
2015-Apr-17 21:33N 29°46' W 095°07'0 0.0
2015-Apr-17 20:34N 29°46' W 095°07'0 0.0
2015-Apr-17 19:33N 29°46' W 095°07'0 0.0
2015-Apr-17 18:33N 29°46' W 095°07'0 0.0
2015-Apr-17 17:33N 29°46' W 095°07'0 0.0
2015-Apr-17 16:34N 29°46' W 095°07'0 0.0
2015-Apr-17 15:33N 29°46' W 095°07'0 0.0
2015-Apr-17 14:34N 29°46' W 095°07'0 0.0
2015-Apr-17 13:33N 29°46' W 095°07'0 0.0
2015-Apr-16 04:05N 29°46' W 095°07'0 0.0
2015-Apr-14 17:32N 29°46' W 095°07'0 0.0
2015-Apr-14 05:22N 29°46' W 095°07'1 0.1
2015-Apr-13 19:19N 29°45' W 095°06'5 6.0
2015-Apr-13 18:33N 29°43' W 095°01'7 6.8
2015-Apr-13 17:33N 29°37' W 094°57'7 7.1
2015-Apr-13 16:34N 29°31' W 094°53'8 7.2
2015-Apr-13 15:25N 29°24' W 094°49'  
Track history (hours):
 
Tides and Currents Weather Stations Pressure Air Temp Water Temp Dewpoint Dewpoint Depression Visibility Wind Speed Wind Dir Waves Ship Positions

Sid Moller

Owner: Genesis Marine, LLC, Houston, TX. More information available from US FCC via Universal Licensing System and Coast Guard Vessel Documentation Center.

Last reported at 2015-Apr-18 14:32 UTC. Time now 2015-Apr-18 15:15 UTC.
Position N 29°46' W 095°07'.

MMSI: 367504980.

Date/timePositionNaut miles runAvg speedWind from/ knotsBaromVisibWave heightAir tempDewpointWater temp
2015-Apr-18 14:32N 29°46' W 095°07'0 0.0
2015-Apr-18 13:34N 29°46' W 095°07'0 0.0
2015-Apr-18 12:32N 29°46' W 095°07'0 0.0
2015-Apr-18 11:34N 29°46' W 095°07'0 0.0
2015-Apr-18 10:33N 29°46' W 095°07'0 0.0
2015-Apr-18 09:33N 29°46' W 095°07'0 0.0
2015-Apr-18 08:33N 29°46' W 095°07'0 0.0
2015-Apr-18 07:32N 29°46' W 095°07'0 0.0
2015-Apr-18 06:33N 29°46' W 095°07'0 0.0
2015-Apr-18 05:27N 29°46' W 095°07'0 0.0
2015-Apr-18 04:27N 29°46' W 095°07'0 0.0
2015-Apr-18 03:32N 29°46' W 095°07'0 0.0
2015-Apr-18 02:33N 29°46' W 095°07'0 0.0
2015-Apr-18 01:13N 29°46' W 095°07'0 0.0
2015-Apr-18 00:31N 29°46' W 095°07'0 0.1
2015-Apr-17 23:33N 29°46' W 095°07'0 0.0
2015-Apr-17 22:34N 29°46' W 095°07'0 0.0
2015-Apr-17 21:33N 29°46' W 095°07'0 0.0
2015-Apr-17 20:34N 29°46' W 095°07'0 0.0
2015-Apr-17 19:33N 29°46' W 095°07'0 0.0
2015-Apr-17 18:33N 29°46' W 095°07'0 0.0
2015-Apr-17 17:33N 29°46' W 095°07'0 0.0
2015-Apr-17 16:34N 29°46' W 095°07'0 0.0
2015-Apr-17 15:33N 29°46' W 095°07'0 0.0
2015-Apr-17 14:34N 29°46' W 095°07'0 0.0
2015-Apr-17 13:33N 29°46' W 095°07'0 0.0
2015-Apr-16 04:05N 29°46' W 095°07'0 0.0
2015-Apr-14 17:32N 29°46' W 095°07'0 0.0
2015-Apr-14 05:22N 29°46' W 095°07'1 0.1
2015-Apr-13 19:19N 29°45' W 095°06'5 6.0
2015-Apr-13 18:33N 29°43' W 095°01'7 6.8
2015-Apr-13 17:33N 29°37' W 094°57'7 7.1
2015-Apr-13 16:34N 29°31' W 094°53'8 7.2
2015-Apr-13 15:25N 29°24' W 094°49'  

Dump ship's entire track history